Time;durP1;ratioP1;P1;durP2;ratioP2;P2;SDS_P1;SDS_P2;PMS_P1;PMS_P2;Temp;Humidity;BMP_temperature;BMP_pressure;BME280_temperature;BME280_humidity;BME280_pressure;Samples;Min_cycle;Max_cycle;Signal;HPM_P1;HPM_P2
2023/08/10 00:00:39;;;;;;;9.45;3.70;;;;;;;26.18;100.00;100814.81;20968037;28;20082;-71
2023/08/10 00:11:03;;;;;;;5.88;3.17;;;;;;;26.08;100.00;100808.94;20970143;28;20097;-71
2023/08/10 00:21:26;;;;;;;7.70;3.90;;;;;;;25.96;100.00;100805.94;20954671;28;20139;-70
2023/08/10 00:31:50;;;;;;;7.50;2.92;;;;;;;25.86;100.00;100810.94;20964174;28;20079;-70
2023/08/10 00:42:12;;;;;;;17.25;4.05;;;;;;;25.76;100.00;100802.34;20979055;28;20048;-71
2023/08/10 00:52:37;;;;;;;11.82;3.22;;;;;;;25.69;100.00;100781.06;20978962;28;20056;-71
2023/08/10 01:02:59;;;;;;;6.50;2.90;;;;;;;25.59;100.00;100783.34;20974398;28;20148;-71
2023/08/10 01:13:31;;;;;;;8.73;3.00;;;;;;;25.52;100.00;100778.25;20963220;28;20044;-71
2023/08/10 01:23:57;;;;;;;7.82;2.70;;;;;;;25.40;100.00;100776.97;21037675;28;20055;-70
2023/08/10 01:34:21;;;;;;;10.02;3.20;;;;;;;25.36;100.00;100769.94;21028270;28;20607;-70
2023/08/10 01:44:44;;;;;;;8.80;3.22;;;;;;;25.34;100.00;100777.22;21055974;28;20048;-71
2023/08/10 01:55:11;;;;;;;7.97;2.50;;;;;;;25.32;100.00;100774.63;21026695;28;20089;-71
2023/08/10 02:05:33;;;;;;;9.82;3.10;;;;;;;25.32;100.00;100780.03;20949685;28;20055;-71
2023/08/10 02:15:58;;;;;;;9.05;2.10;;;;;;;25.34;100.00;100785.34;20996631;28;20055;-70
2023/08/10 02:26:20;;;;;;;9.48;2.83;;;;;;;25.27;100.00;100784.72;20982241;28;20428;-70
2023/08/10 02:36:45;;;;;;;9.88;2.88;;;;;;;25.22;100.00;100784.06;21026221;28;20080;-70
2023/08/10 02:47:08;;;;;;;8.38;2.38;;;;;;;25.20;100.00;100785.09;20975969;28;20051;-71
2023/08/10 02:57:12;;;;;;;6.70;2.53;;;;;;;25.19;100.00;100803.13;20976445;28;20047;-73
2023/08/10 03:07:35;;;;;;;8.02;2.67;;;;;;;25.20;100.00;100796.78;20968585;28;20053;-71
2023/08/10 03:18:00;;;;;;;10.55;2.33;;;;;;;25.28;100.00;100800.00;20976101;28;20051;-71
2023/08/10 03:28:18;;;;;;;6.90;2.17;;;;;;;25.31;100.00;100824.22;20971250;28;20044;-70
2023/08/10 03:38:42;;;;;;;9.95;2.50;;;;;;;25.35;100.00;100825.81;20962101;28;20048;-70
2023/08/10 03:49:05;;;;;;;5.95;2.17;;;;;;;25.40;100.00;100834.59;20971470;28;20045;-71
2023/08/10 03:59:29;;;;;;;8.73;2.35;;;;;;;25.53;100.00;100836.78;20954634;28;20052;-71
2023/08/10 04:09:52;;;;;;;6.25;2.00;;;;;;;25.60;100.00;100855.38;21025431;28;20094;-70
2023/08/10 04:20:16;;;;;;;13.10;2.50;;;;;;;25.79;100.00;100853.63;21056322;28;20051;-70
2023/08/10 04:30:39;;;;;;;10.18;2.30;;;;;;;26.11;100.00;100851.25;21049318;28;20066;-70
2023/08/10 04:40:43;;;;;;;8.50;1.80;;;;;;;26.47;100.00;100854.91;21019267;28;20526;-71
2023/08/10 04:51:06;;;;;;;5.63;1.98;;;;;;;26.52;100.00;100863.69;21038252;28;20044;-70
2023/08/10 05:01:30;;;;;;;5.20;1.67;;;;;;;27.01;100.00;100865.81;21047981;28;20048;-71
2023/08/10 05:11:53;;;;;;;4.60;1.80;;;;;;;27.82;100.00;100866.06;21022452;28;20128;-70
2023/08/10 05:22:17;;;;;;;5.38;1.75;;;;;;;28.89;100.00;100877.25;21027037;28;20411;-71
2023/08/10 05:32:40;;;;;;;6.07;1.50;;;;;;;29.55;99.80;100871.47;21034463;28;20044;-71
2023/08/10 05:43:05;;;;;;;6.03;1.58;;;;;;;29.22;94.04;100882.53;21041521;28;20582;-70
2023/08/10 05:53:28;;;;;;;4.60;1.30;;;;;;;29.40;89.94;100891.47;21065614;28;20399;-71
2023/08/10 06:03:53;;;;;;;2.15;1.17;;;;;;;29.55;91.59;100888.69;21045497;28;20060;-71
2023/08/10 06:14:15;;;;;;;9.20;1.98;;;;;;;29.67;86.64;100892.50;21050659;28;20052;-72
2023/08/10 06:24:39;;;;;;;4.68;1.30;;;;;;;30.19;85.13;100892.00;21045822;28;20044;-71
2023/08/10 06:35:03;;;;;;;4.05;1.10;;;;;;;31.62;73.51;100894.22;21048382;28;20040;-71
2023/08/10 06:45:28;;;;;;;6.55;1.45;;;;;;;31.47;68.84;100889.81;21055058;28;20048;-71
2023/08/10 06:55:51;;;;;;;5.55;1.77;;;;;;;32.52;63.02;100893.22;21021616;28;20133;-71
2023/08/10 07:06:17;;;;;;;7.35;1.35;;;;;;;33.14;57.53;100907.69;20971418;28;20048;-71
2023/08/10 07:16:40;;;;;;;4.85;1.00;;;;;;;32.93;54.02;100917.53;20976058;28;20110;-71
2023/08/10 07:27:06;;;;;;;5.07;1.30;;;;;;;33.41;52.21;100918.44;20976213;28;20527;-71
2023/08/10 07:37:29;;;;;;;5.93;1.20;;;;;;;33.67;49.38;100919.13;20976496;28;20049;-71
2023/08/10 07:47:53;;;;;;;2.85;1.33;;;;;;;33.70;47.30;100919.75;20978185;28;20052;-72
2023/08/10 07:58:16;;;;;;;6.27;1.07;;;;;;;33.86;46.63;100923.06;20986111;28;20048;-71
2023/08/10 08:08:40;;;;;;;3.22;1.27;;;;;;;33.79;45.18;100920.94;21045379;28;20144;-71
2023/08/10 08:19:03;;;;;;;4.67;0.97;;;;;;;33.95;44.47;100922.31;21021047;28;20055;-71
2023/08/10 08:29:28;;;;;;;4.35;1.17;;;;;;;34.43;43.47;100932.25;20964731;28;21034;-71
2023/08/10 08:39:50;;;;;;;;;;;;;;;34.15;42.76;100934.44;20979917;28;20059;-71
2023/08/10 08:50:16;;;;;;;2.85;0.90;;;;;;;34.87;39.89;100942.31;20976241;28;19989;-71
2023/08/10 09:00:40;;;;;;;3.13;0.80;;;;;;;35.00;38.52;100959.50;20950098;28;20063;-68
2023/08/10 09:11:05;;;;;;;5.37;0.97;;;;;;;35.34;36.99;100961.19;20956550;28;20101;-68
2023/08/10 09:21:32;;;;;;;2.88;0.80;;;;;;;35.73;35.85;100961.56;20997935;28;20079;-68
2023/08/10 09:31:58;;;;;;;4.57;1.02;;;;;;;35.90;33.68;100960.97;20979091;28;20056;-71
2023/08/10 09:42:21;;;;;;;2.47;0.85;;;;;;;36.18;33.16;100960.31;21058147;28;20079;-71
2023/08/10 09:52:47;;;;;;;2.67;0.85;;;;;;;36.43;32.56;100947.13;21039030;28;20052;-71
2023/08/10 10:03:10;;;;;;;4.20;0.90;;;;;;;36.59;32.70;100952.97;21037796;28;20067;-71
2023/08/10 10:13:35;;;;;;;1.65;0.80;;;;;;;36.62;33.17;100950.84;21044938;28;20052;-69
2023/08/10 10:24:03;;;;;;;4.57;1.00;;;;;;;36.49;33.00;100950.19;21040899;28;20055;-69
2023/08/10 10:34:33;;;;;;;4.70;0.95;;;;;;;35.94;33.36;100934.94;21046946;28;20044;-68
2023/08/10 10:45:00;;;;;;;2.60;0.95;;;;;;;35.71;34.55;100936.94;21056221;28;20551;-71
2023/08/10 10:55:26;;;;;;;7.38;0.90;;;;;;;35.62;34.50;100931.38;21002626;28;20052;-71
2023/08/10 11:05:49;;;;;;;3.83;0.90;;;;;;;35.61;34.69;100921.38;21010480;28;20048;-71
2023/08/10 11:16:13;;;;;;;3.25;1.20;;;;;;;35.38;35.64;100915.97;21023828;28;20048;-70
2023/08/10 11:26:16;;;;;;;4.57;1.15;;;;;;;35.37;36.33;100922.50;21053401;28;20052;-71
2023/08/10 11:36:43;;;;;;;4.78;0.93;;;;;;;35.36;36.76;100922.63;21019103;28;20138;-71
2023/08/10 11:47:05;;;;;;;3.92;1.10;;;;;;;35.34;37.58;100921.88;21025811;28;20052;-71
2023/08/10 11:57:37;;;;;;;4.30;1.00;;;;;;;35.31;37.19;100906.56;21045361;28;20649;-71
2023/08/10 12:08:00;;;;;;;4.50;0.70;;;;;;;35.08;36.46;100907.59;21007176;28;20044;-70
2023/08/10 12:18:06;;;;;;;4.53;0.90;;;;;;;35.07;36.36;100905.84;21053121;28;20764;-71
2023/08/10 12:28:29;;;;;;;4.72;0.70;;;;;;;35.04;36.33;100907.00;21051477;28;20048;-71
2023/08/10 12:38:54;;;;;;;5.65;1.35;;;;;;;34.86;37.52;100908.50;21038078;28;20047;-70
2023/08/10 12:49:17;;;;;;;2.92;0.80;;;;;;;34.84;36.90;100913.28;21020471;28;20067;-70
2023/08/10 12:59:41;;;;;;;3.90;0.68;;;;;;;34.85;37.81;100905.91;21038999;28;20060;-70
2023/08/10 13:10:07;;;;;;;3.08;0.70;;;;;;;34.58;38.14;100896.22;21017354;28;20067;-71
2023/08/10 13:20:12;;;;;;;4.05;0.80;;;;;;;34.35;39.31;100899.97;21036217;28;20063;-71
2023/08/10 13:30:35;;;;;;;6.05;0.90;;;;;;;34.09;39.37;100912.13;21025099;28;20048;-71
2023/08/10 13:40:59;;;;;;;4.10;1.00;;;;;;;33.79;39.97;100893.53;21039729;28;20055;-70
2023/08/10 13:51:22;;;;;;;4.57;0.88;;;;;;;33.50;40.77;100912.22;21041636;28;20044;-71
2023/08/10 14:01:46;;;;;;;4.00;0.85;;;;;;;33.25;42.21;100906.91;21065009;28;20088;-71
2023/08/10 14:12:09;;;;;;;5.15;0.90;;;;;;;33.25;42.04;100905.03;21042098;28;20540;-70
2023/08/10 14:22:35;;;;;;;4.13;0.90;;;;;;;33.27;42.70;100903.06;21054278;28;20048;-71
2023/08/10 14:32:58;;;;;;;7.47;0.90;;;;;;;33.53;43.43;100899.16;21013834;28;20048;-70
2023/08/10 14:43:22;;;;;;;4.05;1.60;;;;;;;33.37;45.12;100901.34;21033341;28;20410;-70
2023/08/10 14:53:45;;;;;;;3.97;0.82;;;;;;;33.10;45.14;100884.28;21041617;28;20355;-70
2023/08/10 15:04:10;;;;;;;4.75;1.10;;;;;;;32.30;46.19;100894.78;21079019;28;20582;-70
2023/08/10 15:14:32;;;;;;;4.70;1.15;;;;;;;31.70;48.19;100899.16;21050970;28;20109;-71
2023/08/10 15:24:36;;;;;;;3.55;0.80;;;;;;;31.18;51.48;100899.97;21046378;28;20093;-70
2023/08/10 15:34:59;;;;;;;2.67;0.90;;;;;;;30.72;54.37;100913.94;21034848;28;20055;-70
2023/08/10 15:45:24;;;;;;;3.17;1.05;;;;;;;30.38;56.34;100907.06;21049623;28;20036;-71
2023/08/10 15:55:46;;;;;;;3.38;0.93;;;;;;;30.07;59.23;100923.59;21042061;28;20044;-71
2023/08/10 16:06:10;;;;;;;3.33;1.35;;;;;;;29.82;61.47;100910.59;20962470;28;20068;-70
2023/08/10 16:16:33;;;;;;;7.53;1.42;;;;;;;29.69;63.85;100926.81;21032196;28;20079;-71
2023/08/10 16:26:38;;;;;;;3.20;0.98;;;;;;;29.45;67.89;100927.44;21052631;28;20051;-70
2023/08/10 16:37:01;;;;;;;3.80;1.00;;;;;;;29.23;70.44;100915.09;21070161;28;20040;-71
2023/08/10 16:47:25;;;;;;;7.70;1.02;;;;;;;29.05;73.05;100913.47;21027170;28;20072;-71
2023/08/10 16:57:49;;;;;;;7.72;1.50;;;;;;;28.83;76.62;100924.69;21043499;28;20048;-71
2023/08/10 17:08:13;;;;;;;5.82;1.30;;;;;;;28.63;79.91;100924.91;21030161;28;20040;-71
2023/08/10 17:18:36;;;;;;;3.10;1.30;;;;;;;28.43;82.21;100925.16;21037159;28;20048;-71
2023/08/10 17:28:41;;;;;;;4.43;1.40;;;;;;;28.24;84.77;100936.16;21041068;28;20589;-70
2023/08/10 17:39:03;;;;;;;4.22;1.50;;;;;;;28.09;86.24;100943.28;21026001;28;20200;-70
2023/08/10 17:49:28;;;;;;;5.68;1.25;;;;;;;27.93;88.03;100946.91;21033667;28;20461;-70
2023/08/10 17:59:51;;;;;;;3.80;1.42;;;;;;;27.74;89.83;100953.31;21042900;28;20055;-70
2023/08/10 18:10:13;;;;;;;4.90;1.40;;;;;;;27.56;92.75;100970.56;21053600;28;20052;-71
2023/08/10 18:20:35;;;;;;;3.55;1.30;;;;;;;27.45;93.41;100969.28;21041522;28;20554;-71
2023/08/10 18:30:59;;;;;;;5.35;1.40;;;;;;;27.25;95.99;100983.84;20998887;28;20048;-70
2023/08/10 18:41:24;;;;;;;5.03;1.17;;;;;;;27.10;95.64;100985.53;20991569;28;20063;-71
2023/08/10 18:51:48;;;;;;;5.05;1.60;;;;;;;26.94;95.75;100998.94;20973850;28;20078;-71
2023/08/10 19:02:12;;;;;;;5.93;1.65;;;;;;;26.82;96.13;100994.06;20993070;28;20064;-71
2023/08/10 19:12:36;;;;;;;8.73;1.98;;;;;;;26.70;97.02;100991.97;20977628;28;20140;-70
2023/08/10 19:22:59;;;;;;;6.28;1.40;;;;;;;26.53;97.45;100995.44;21034845;28;20080;-71
2023/08/10 19:33:23;;;;;;;5.05;1.80;;;;;;;26.42;97.09;101003.19;21050749;28;20101;-70
2023/08/10 19:43:48;;;;;;;5.97;1.42;;;;;;;26.35;97.36;100999.00;21035158;28;20753;-71
2023/08/10 19:54:13;;;;;;;5.65;1.40;;;;;;;26.28;99.17;100999.34;21039257;28;20105;-70
2023/08/10 20:04:36;;;;;;;4.88;1.65;;;;;;;26.22;100.00;100994.19;21028895;28;20091;-70
2023/08/10 20:15:00;;;;;;;3.08;1.60;;;;;;;26.22;100.00;100999.59;21030025;28;20089;-70
2023/08/10 20:25:23;;;;;;;8.27;2.50;;;;;;;26.14;100.00;100998.13;21049705;28;20048;-71
2023/08/10 20:35:41;;;;;;;6.90;1.85;;;;;;;26.12;100.00;100999.16;21046710;28;20056;-70
2023/08/10 20:46:04;;;;;;;3.55;1.70;;;;;;;26.00;100.00;100986.16;21035450;28;20074;-70
2023/08/10 20:56:28;;;;;;;3.15;1.70;;;;;;;25.87;100.00;100998.44;21011224;28;20063;-70
2023/08/10 21:06:50;;;;;;;5.05;1.83;;;;;;;25.77;100.00;100979.94;21034108;28;20442;-71
2023/08/10 21:17:15;;;;;;;4.75;1.92;;;;;;;25.72;100.00;100990.09;21067262;28;20044;-70
2023/08/10 21:27:38;;;;;;;3.53;1.55;;;;;;;25.53;100.00;100983.69;21040098;28;20100;-70
2023/08/10 21:37:42;;;;;;;7.53;2.08;;;;;;;25.51;100.00;100992.78;21032285;28;20439;-70
2023/08/10 21:48:05;;;;;;;6.28;1.98;;;;;;;25.38;100.00;100998.72;21041537;28;20044;-70
2023/08/10 21:58:29;;;;;;;4.05;1.52;;;;;;;25.37;100.00;100998.78;21009154;28;20055;-70
2023/08/10 22:08:52;;;;;;;5.38;1.90;;;;;;;25.35;100.00;100989.84;21006638;28;20079;-70
2023/08/10 22:19:17;;;;;;;4.45;1.27;;;;;;;25.36;100.00;100992.50;21015390;28;20051;-71
2023/08/10 22:29:40;;;;;;;4.57;1.63;;;;;;;25.34;100.00;100994.38;21051485;28;20048;-70
2023/08/10 22:39:44;;;;;;;5.00;1.63;;;;;;;25.33;100.00;100981.81;21063712;28;20061;-70
2023/08/10 22:50:07;;;;;;;3.83;1.35;;;;;;;25.25;100.00;100983.06;21052569;28;20047;-70
2023/08/10 23:00:31;;;;;;;3.92;1.60;;;;;;;25.14;100.00;100974.53;21037500;28;20045;-70
2023/08/10 23:10:54;;;;;;;5.18;1.77;;;;;;;25.13;100.00;100973.66;21036865;28;20044;-70
2023/08/10 23:21:18;;;;;;;5.32;1.88;;;;;;;25.13;100.00;100965.56;21039798;28;20641;-70
2023/08/10 23:31:41;;;;;;;3.17;1.50;;;;;;;25.14;100.00;100964.56;21029968;28;20036;-71
2023/08/10 23:42:06;;;;;;;4.85;1.70;;;;;;;25.14;100.00;100963.72;21048648;28;20055;-70
2023/08/10 23:52:33;;;;;;;5.82;1.80;;;;;;;25.08;100.00;100950.44;21047773;28;20105;-70
